sensor_id;sensor_type;location;lat;lon;timestamp;temperature;humidity
11454;DHT22;5783;55.174;61.310;2024-03-02T00:02:18;27.80;18.40
11454;DHT22;5783;55.174;61.310;2024-03-02T00:04:47;27.80;17.90
11454;DHT22;5783;55.174;61.310;2024-03-02T00:07:15;27.80;17.60
11454;DHT22;5783;55.174;61.310;2024-03-02T00:09:44;27.90;18.20
11454;DHT22;5783;55.174;61.310;2024-03-02T00:12:15;27.90;17.60
11454;DHT22;5783;55.174;61.310;2024-03-02T00:14:42;27.90;18.00
11454;DHT22;5783;55.174;61.310;2024-03-02T00:17:14;28.00;17.90
11454;DHT22;5783;55.174;61.310;2024-03-02T00:19:41;27.90;17.50
11454;DHT22;5783;55.174;61.310;2024-03-02T00:22:09;27.90;17.40
11454;DHT22;5783;55.174;61.310;2024-03-02T00:24:38;27.90;17.40
11454;DHT22;5783;55.174;61.310;2024-03-02T00:27:07;27.90;17.90
11454;DHT22;5783;55.174;61.310;2024-03-02T00:29:37;27.90;17.40
11454;DHT22;5783;55.174;61.310;2024-03-02T00:32:09;27.80;18.00
11454;DHT22;5783;55.174;61.310;2024-03-02T00:34:35;27.80;18.00
11454;DHT22;5783;55.174;61.310;2024-03-02T00:37:03;27.80;18.10
11454;DHT22;5783;55.174;61.310;2024-03-02T00:39:32;27.90;18.00
11454;DHT22;5783;55.174;61.310;2024-03-02T00:42:01;27.80;17.60
11454;DHT22;5783;55.174;61.310;2024-03-02T00:44:30;27.80;19.20
11454;DHT22;5783;55.174;61.310;2024-03-02T00:47:02;27.90;18.70
11454;DHT22;5783;55.174;61.310;2024-03-02T00:49:30;27.90;18.00
11454;DHT22;5783;55.174;61.310;2024-03-02T00:51:59;27.90;17.90
11454;DHT22;5783;55.174;61.310;2024-03-02T00:54:27;27.90;17.80
11454;DHT22;5783;55.174;61.310;2024-03-02T00:56:55;27.90;17.70
11454;DHT22;5783;55.174;61.310;2024-03-02T00:59:25;27.90;17.80
11454;DHT22;5783;55.174;61.310;2024-03-02T01:01:53;27.90;17.80
11454;DHT22;5783;55.174;61.310;2024-03-02T01:04:21;28.00;17.30
11454;DHT22;5783;55.174;61.310;2024-03-02T01:06:49;28.00;17.60
11454;DHT22;5783;55.174;61.310;2024-03-02T01:09:18;28.00;17.40
11454;DHT22;5783;55.174;61.310;2024-03-02T01:11:46;28.00;17.50
11454;DHT22;5783;55.174;61.310;2024-03-02T01:14:14;28.00;17.40
11454;DHT22;5783;55.174;61.310;2024-03-02T01:16:43;28.00;17.40
11454;DHT22;5783;55.174;61.310;2024-03-02T01:19:11;28.00;17.40
11454;DHT22;5783;55.174;61.310;2024-03-02T01:21:39;28.00;17.40
11454;DHT22;5783;55.174;61.310;2024-03-02T01:24:07;27.90;17.40
11454;DHT22;5783;55.174;61.310;2024-03-02T01:26:35;27.90;17.40
11454;DHT22;5783;55.174;61.310;2024-03-02T01:29:03;27.90;17.40
11454;DHT22;5783;55.174;61.310;2024-03-02T01:31:32;27.90;17.90
11454;DHT22;5783;55.174;61.310;2024-03-02T01:34:00;27.90;17.90
11454;DHT22;5783;55.174;61.310;2024-03-02T01:36:28;27.80;17.70
11454;DHT22;5783;55.174;61.310;2024-03-02T01:38:56;27.80;17.90
11454;DHT22;5783;55.174;61.310;2024-03-02T01:41:24;27.90;17.90
11454;DHT22;5783;55.174;61.310;2024-03-02T01:43:53;27.90;17.90
11454;DHT22;5783;55.174;61.310;2024-03-02T01:46:21;27.90;17.80
11454;DHT22;5783;55.174;61.310;2024-03-02T01:49:08;27.80;17.70
11454;DHT22;5783;55.174;61.310;2024-03-02T01:51:37;27.90;18.50
11454;DHT22;5783;55.174;61.310;2024-03-02T01:54:05;27.90;17.90
11454;DHT22;5783;55.174;61.310;2024-03-02T01:56:33;27.90;17.80
11454;DHT22;5783;55.174;61.310;2024-03-02T01:59:01;27.90;17.80
11454;DHT22;5783;55.174;61.310;2024-03-02T02:01:30;27.90;17.90
11454;DHT22;5783;55.174;61.310;2024-03-02T02:03:58;27.90;17.50
11454;DHT22;5783;55.174;61.310;2024-03-02T02:06:26;27.90;17.80
11454;DHT22;5783;55.174;61.310;2024-03-02T02:08:54;27.90;17.70
11454;DHT22;5783;55.174;61.310;2024-03-02T02:11:23;27.90;17.70
11454;DHT22;5783;55.174;61.310;2024-03-02T02:13:52;27.90;17.60
11454;DHT22;5783;55.174;61.310;2024-03-02T02:16:21;27.90;17.60
11454;DHT22;5783;55.174;61.310;2024-03-02T02:18:49;27.90;17.70
11454;DHT22;5783;55.174;61.310;2024-03-02T02:21:22;27.90;17.60
11454;DHT22;5783;55.174;61.310;2024-03-02T02:23:49;27.90;17.60
11454;DHT22;5783;55.174;61.310;2024-03-02T02:26:17;27.80;17.60
11454;DHT22;5783;55.174;61.310;2024-03-02T02:28:45;27.90;17.60
11454;DHT22;5783;55.174;61.310;2024-03-02T02:31:13;27.90;17.60
11454;DHT22;5783;55.174;61.310;2024-03-02T02:33:42;27.90;17.70
11454;DHT22;5783;55.174;61.310;2024-03-02T02:36:10;27.90;17.60
11454;DHT22;5783;55.174;61.310;2024-03-02T02:38:39;27.90;17.60
11454;DHT22;5783;55.174;61.310;2024-03-02T02:41:08;27.90;17.60
11454;DHT22;5783;55.174;61.310;2024-03-02T02:43:36;28.00;17.60
11454;DHT22;5783;55.174;61.310;2024-03-02T02:46:06;28.00;17.60
11454;DHT22;5783;55.174;61.310;2024-03-02T02:48:34;28.00;17.40
11454;DHT22;5783;55.174;61.310;2024-03-02T02:51:02;28.00;17.30
11454;DHT22;5783;55.174;61.310;2024-03-02T02:53:31;28.00;17.40
11454;DHT22;5783;55.174;61.310;2024-03-02T02:56:00;28.10;17.50
11454;DHT22;5783;55.174;61.310;2024-03-02T02:58:29;28.10;17.50
11454;DHT22;5783;55.174;61.310;2024-03-02T03:00:57;28.00;17.40
11454;DHT22;5783;55.174;61.310;2024-03-02T03:03:25;28.00;17.40
11454;DHT22;5783;55.174;61.310;2024-03-02T03:05:53;28.00;17.40
11454;DHT22;5783;55.174;61.310;2024-03-02T03:08:21;28.00;17.60
11454;DHT22;5783;55.174;61.310;2024-03-02T03:10:50;28.00;17.40
11454;DHT22;5783;55.174;61.310;2024-03-02T03:13:18;27.90;17.90
11454;DHT22;5783;55.174;61.310;2024-03-02T03:15:46;27.90;17.60
11454;DHT22;5783;55.174;61.310;2024-03-02T03:18:14;27.90;17.50
11454;DHT22;5783;55.174;61.310;2024-03-02T03:20:43;27.90;17.50
11454;DHT22;5783;55.174;61.310;2024-03-02T03:23:11;27.90;17.60
11454;DHT22;5783;55.174;61.310;2024-03-02T03:25:41;28.00;18.10
11454;DHT22;5783;55.174;61.310;2024-03-02T03:28:10;28.00;17.80
11454;DHT22;5783;55.174;61.310;2024-03-02T03:30:38;28.00;17.50
11454;DHT22;5783;55.174;61.310;2024-03-02T03:33:06;28.00;17.50
11454;DHT22;5783;55.174;61.310;2024-03-02T03:35:35;28.00;17.50
11454;DHT22;5783;55.174;61.310;2024-03-02T03:38:04;28.00;17.50
11454;DHT22;5783;55.174;61.310;2024-03-02T03:40:32;28.00;17.50
11454;DHT22;5783;55.174;61.310;2024-03-02T03:43:00;28.00;17.40
11454;DHT22;5783;55.174;61.310;2024-03-02T03:45:29;28.00;17.60
11454;DHT22;5783;55.174;61.310;2024-03-02T03:47:57;28.00;17.50
11454;DHT22;5783;55.174;61.310;2024-03-02T03:50:25;27.90;17.50
11454;DHT22;5783;55.174;61.310;2024-03-02T03:52:53;27.90;17.50
11454;DHT22;5783;55.174;61.310;2024-03-02T03:58:09;27.90;17.90
11454;DHT22;5783;55.174;61.310;2024-03-02T04:00:37;27.80;17.70
11454;DHT22;5783;55.174;61.310;2024-03-02T04:03:05;27.80;17.50
11454;DHT22;5783;55.174;61.310;2024-03-02T04:05:33;27.90;17.50
11454;DHT22;5783;55.174;61.310;2024-03-02T04:08:02;27.90;17.70
11454;DHT22;5783;55.174;61.310;2024-03-02T04:10:30;27.80;17.60
11454;DHT22;5783;55.174;61.310;2024-03-02T04:13:00;27.90;18.50
11454;DHT22;5783;55.174;61.310;2024-03-02T04:15:28;27.90;18.50
11454;DHT22;5783;55.174;61.310;2024-03-02T04:17:56;27.90;18.00
11454;DHT22;5783;55.174;61.310;2024-03-02T04:20:24;28.00;17.90
11454;DHT22;5783;55.174;61.310;2024-03-02T04:22:53;28.10;17.80
11454;DHT22;5783;55.174;61.310;2024-03-02T04:25:21;28.10;18.70
11454;DHT22;5783;55.174;61.310;2024-03-02T04:27:49;28.20;22.50
11454;DHT22;5783;55.174;61.310;2024-03-02T04:30:17;28.20;27.80
11454;DHT22;5783;55.174;61.310;2024-03-02T04:32:46;28.20;26.80
11454;DHT22;5783;55.174;61.310;2024-03-02T04:35:14;28.20;24.50
11454;DHT22;5783;55.174;61.310;2024-03-02T04:37:43;28.20;21.00
11454;DHT22;5783;55.174;61.310;2024-03-02T04:40:11;28.20;17.50
11454;DHT22;5783;55.174;61.310;2024-03-02T04:42:39;28.20;17.90
11454;DHT22;5783;55.174;61.310;2024-03-02T04:45:08;28.20;18.30
11454;DHT22;5783;55.174;61.310;2024-03-02T04:47:36;28.10;19.10
11454;DHT22;5783;55.174;61.310;2024-03-02T04:50:04;28.20;18.40
11454;DHT22;5783;55.174;61.310;2024-03-02T04:52:33;28.10;18.60
11454;DHT22;5783;55.174;61.310;2024-03-02T04:55:02;28.10;17.30
11454;DHT22;5783;55.174;61.310;2024-03-02T04:57:49;28.20;18.10
11454;DHT22;5783;55.174;61.310;2024-03-02T05:00:20;28.10;18.00
11454;DHT22;5783;55.174;61.310;2024-03-02T05:02:48;28.10;17.50
11454;DHT22;5783;55.174;61.310;2024-03-02T05:05:17;28.10;18.30
11454;DHT22;5783;55.174;61.310;2024-03-02T05:07:45;28.10;18.80
11454;DHT22;5783;55.174;61.310;2024-03-02T05:10:13;28.10;19.50
11454;DHT22;5783;55.174;61.310;2024-03-02T05:12:42;28.00;18.50
11454;DHT22;5783;55.174;61.310;2024-03-02T05:15:13;28.00;16.80
11454;DHT22;5783;55.174;61.310;2024-03-02T05:17:42;27.90;18.20
11454;DHT22;5783;55.174;61.310;2024-03-02T05:20:10;27.90;18.90
11454;DHT22;5783;55.174;61.310;2024-03-02T05:22:38;27.90;18.20
11454;DHT22;5783;55.174;61.310;2024-03-02T05:25:06;27.90;18.30
11454;DHT22;5783;55.174;61.310;2024-03-02T05:27:37;27.90;18.50
11454;DHT22;5783;55.174;61.310;2024-03-02T05:30:06;27.80;18.00
11454;DHT22;5783;55.174;61.310;2024-03-02T05:32:35;27.80;17.10
11454;DHT22;5783;55.174;61.310;2024-03-02T05:35:04;27.80;18.00
11454;DHT22;5783;55.174;61.310;2024-03-02T05:37:33;27.70;17.80
11454;DHT22;5783;55.174;61.310;2024-03-02T05:40:02;27.70;16.40
11454;DHT22;5783;55.174;61.310;2024-03-02T05:42:31;27.70;17.00
11454;DHT22;5783;55.174;61.310;2024-03-02T05:45:00;27.60;16.20
11454;DHT22;5783;55.174;61.310;2024-03-02T05:47:31;27.60;16.20
11454;DHT22;5783;55.174;61.310;2024-03-02T05:50:00;27.60;16.20
11454;DHT22;5783;55.174;61.310;2024-03-02T05:52:30;27.60;16.20
11454;DHT22;5783;55.174;61.310;2024-03-02T05:54:59;27.60;16.30
11454;DHT22;5783;55.174;61.310;2024-03-02T05:57:28;27.60;16.30
11454;DHT22;5783;55.174;61.310;2024-03-02T06:00:17;27.60;16.20
11454;DHT22;5783;55.174;61.310;2024-03-02T06:02:46;27.60;16.20
11454;DHT22;5783;55.174;61.310;2024-03-02T06:05:15;27.50;16.10
11454;DHT22;5783;55.174;61.310;2024-03-02T06:07:45;27.60;16.20
11454;DHT22;5783;55.174;61.310;2024-03-02T06:10:14;27.50;16.00
11454;DHT22;5783;55.174;61.310;2024-03-02T06:12:43;27.60;16.00
11454;DHT22;5783;55.174;61.310;2024-03-02T06:15:12;27.60;15.90
11454;DHT22;5783;55.174;61.310;2024-03-02T06:17:41;27.50;16.00
11454;DHT22;5783;55.174;61.310;2024-03-02T06:20:11;27.50;15.90
11454;DHT22;5783;55.174;61.310;2024-03-02T06:22:40;27.50;16.00
11454;DHT22;5783;55.174;61.310;2024-03-02T06:25:28;27.50;16.00
11454;DHT22;5783;55.174;61.310;2024-03-02T06:27:58;27.40;16.90
11454;DHT22;5783;55.174;61.310;2024-03-02T06:30:27;27.60;16.30
11454;DHT22;5783;55.174;61.310;2024-03-02T06:32:56;27.40;16.60
11454;DHT22;5783;55.174;61.310;2024-03-02T06:35:25;27.40;16.40
11454;DHT22;5783;55.174;61.310;2024-03-02T06:37:55;27.40;16.80
11454;DHT22;5783;55.174;61.310;2024-03-02T06:40:24;27.40;16.50
11454;DHT22;5783;55.174;61.310;2024-03-02T06:42:53;27.40;16.90
11454;DHT22;5783;55.174;61.310;2024-03-02T06:45:22;27.30;16.50
11454;DHT22;5783;55.174;61.310;2024-03-02T06:47:51;27.30;16.20
11454;DHT22;5783;55.174;61.310;2024-03-02T06:50:21;27.30;16.30
11454;DHT22;5783;55.174;61.310;2024-03-02T06:52:50;27.30;16.30
11454;DHT22;5783;55.174;61.310;2024-03-02T06:55:19;27.30;16.40
11454;DHT22;5783;55.174;61.310;2024-03-02T06:57:48;27.30;16.50
11454;DHT22;5783;55.174;61.310;2024-03-02T07:00:19;27.30;17.00
11454;DHT22;5783;55.174;61.310;2024-03-02T07:02:48;27.30;16.90
11454;DHT22;5783;55.174;61.310;2024-03-02T07:05:33;27.30;18.60
11454;DHT22;5783;55.174;61.310;2024-03-02T07:08:03;27.30;18.60
11454;DHT22;5783;55.174;61.310;2024-03-02T07:10:32;27.30;17.30
11454;DHT22;5783;55.174;61.310;2024-03-02T07:13:02;27.30;17.00
11454;DHT22;5783;55.174;61.310;2024-03-02T07:15:31;27.30;16.80
11454;DHT22;5783;55.174;61.310;2024-03-02T07:18:03;27.30;16.50
11454;DHT22;5783;55.174;61.310;2024-03-02T07:23:24;27.30;16.80
11454;DHT22;5783;55.174;61.310;2024-03-02T07:25:54;27.30;16.80
11454;DHT22;5783;55.174;61.310;2024-03-02T07:28:24;27.30;16.60
11454;DHT22;5783;55.174;61.310;2024-03-02T07:31:12;27.20;16.60
11454;DHT22;5783;55.174;61.310;2024-03-02T07:33:43;27.20;16.60
11454;DHT22;5783;55.174;61.310;2024-03-02T07:36:13;27.20;16.70
11454;DHT22;5783;55.174;61.310;2024-03-02T07:38:43;27.20;16.90
11454;DHT22;5783;55.174;61.310;2024-03-02T07:41:13;27.20;16.40
11454;DHT22;5783;55.174;61.310;2024-03-02T07:43:42;27.20;16.50
11454;DHT22;5783;55.174;61.310;2024-03-02T07:46:11;27.20;16.60
11454;DHT22;5783;55.174;61.310;2024-03-02T07:48:42;27.20;16.70
11454;DHT22;5783;55.174;61.310;2024-03-02T07:51:11;27.10;16.70
11454;DHT22;5783;55.174;61.310;2024-03-02T07:53:41;27.10;16.80
11454;DHT22;5783;55.174;61.310;2024-03-02T07:56:10;27.10;16.90
11454;DHT22;5783;55.174;61.310;2024-03-02T07:58:39;27.10;16.50
11454;DHT22;5783;55.174;61.310;2024-03-02T08:01:09;27.10;16.90
11454;DHT22;5783;55.174;61.310;2024-03-02T08:03:38;27.10;17.10
11454;DHT22;5783;55.174;61.310;2024-03-02T08:08:57;27.10;19.40
11454;DHT22;5783;55.174;61.310;2024-03-02T08:11:27;27.00;19.00
11454;DHT22;5783;55.174;61.310;2024-03-02T08:13:57;27.00;23.00
11454;DHT22;5783;55.174;61.310;2024-03-02T08:16:27;27.10;20.60
11454;DHT22;5783;55.174;61.310;2024-03-02T08:21:25;27.10;17.90
11454;DHT22;5783;55.174;61.310;2024-03-02T08:23:57;27.20;18.10
11454;DHT22;5783;55.174;61.310;2024-03-02T08:26:28;27.20;17.80
11454;DHT22;5783;55.174;61.310;2024-03-02T08:28:58;27.20;17.60
11454;DHT22;5783;55.174;61.310;2024-03-02T08:31:30;27.20;17.50
11454;DHT22;5783;55.174;61.310;2024-03-02T08:34:01;27.30;17.30
11454;DHT22;5783;55.174;61.310;2024-03-02T08:36:30;27.20;17.30
11454;DHT22;5783;55.174;61.310;2024-03-02T08:39:00;27.10;16.60
11454;DHT22;5783;55.174;61.310;2024-03-02T08:41:30;27.10;17.30
11454;DHT22;5783;55.174;61.310;2024-03-02T08:43:59;27.10;18.30
11454;DHT22;5783;55.174;61.310;2024-03-02T08:46:28;27.20;18.90
11454;DHT22;5783;55.174;61.310;2024-03-02T08:48:57;27.20;17.80
11454;DHT22;5783;55.174;61.310;2024-03-02T08:51:26;27.20;17.40
11454;DHT22;5783;55.174;61.310;2024-03-02T08:56:44;27.20;17.10
11454;DHT22;5783;55.174;61.310;2024-03-02T09:02:02;27.20;16.90
11454;DHT22;5783;55.174;61.310;2024-03-02T09:04:32;27.10;16.70
11454;DHT22;5783;55.174;61.310;2024-03-02T09:07:01;27.10;16.80
11454;DHT22;5783;55.174;61.310;2024-03-02T09:09:30;27.10;16.60
11454;DHT22;5783;55.174;61.310;2024-03-02T09:11:59;27.10;16.50
11454;DHT22;5783;55.174;61.310;2024-03-02T09:14:29;27.10;16.50
11454;DHT22;5783;55.174;61.310;2024-03-02T09:16:58;27.10;16.50
11454;DHT22;5783;55.174;61.310;2024-03-02T09:19:27;27.10;16.50
11454;DHT22;5783;55.174;61.310;2024-03-02T09:21:56;27.10;16.50
11454;DHT22;5783;55.174;61.310;2024-03-02T09:24:25;27.20;16.40
11454;DHT22;5783;55.174;61.310;2024-03-02T09:26:54;27.20;16.30
11454;DHT22;5783;55.174;61.310;2024-03-02T09:29:23;27.20;16.60
11454;DHT22;5783;55.174;61.310;2024-03-02T09:31:52;27.10;16.20
11454;DHT22;5783;55.174;61.310;2024-03-02T09:34:22;27.20;16.40
11454;DHT22;5783;55.174;61.310;2024-03-02T09:36:52;27.10;16.50
11454;DHT22;5783;55.174;61.310;2024-03-02T09:39:21;27.10;16.50
11454;DHT22;5783;55.174;61.310;2024-03-02T09:41:52;27.00;17.60
11454;DHT22;5783;55.174;61.310;2024-03-02T09:44:22;27.00;18.10
11454;DHT22;5783;55.174;61.310;2024-03-02T09:46:52;27.10;17.20
11454;DHT22;5783;55.174;61.310;2024-03-02T09:49:22;27.10;17.00
11454;DHT22;5783;55.174;61.310;2024-03-02T09:51:51;27.10;16.80
11454;DHT22;5783;55.174;61.310;2024-03-02T09:54:21;27.10;16.70
11454;DHT22;5783;55.174;61.310;2024-03-02T09:56:50;27.10;16.70
11454;DHT22;5783;55.174;61.310;2024-03-02T09:59:20;27.00;16.30
11454;DHT22;5783;55.174;61.310;2024-03-02T10:02:08;27.00;16.80
11454;DHT22;5783;55.174;61.310;2024-03-02T10:04:37;27.00;16.60
11454;DHT22;5783;55.174;61.310;2024-03-02T10:07:26;27.00;16.60
11454;DHT22;5783;55.174;61.310;2024-03-02T10:09:55;27.10;16.60
11454;DHT22;5783;55.174;61.310;2024-03-02T10:12:25;27.00;16.60
11454;DHT22;5783;55.174;61.310;2024-03-02T10:15:02;27.00;16.60
11454;DHT22;5783;55.174;61.310;2024-03-02T10:20:37;27.10;16.60
11454;DHT22;5783;55.174;61.310;2024-03-02T10:23:26;27.10;16.60
11454;DHT22;5783;55.174;61.310;2024-03-02T10:25:55;27.10;16.10
11454;DHT22;5783;55.174;61.310;2024-03-02T10:28:24;27.10;16.50
11454;DHT22;5783;55.174;61.310;2024-03-02T10:30:55;27.10;16.50
11454;DHT22;5783;55.174;61.310;2024-03-02T10:33:24;27.10;16.50
11454;DHT22;5783;55.174;61.310;2024-03-02T10:35:53;27.00;16.60
11454;DHT22;5783;55.174;61.310;2024-03-02T10:38:23;27.10;16.70
11454;DHT22;5783;55.174;61.310;2024-03-02T10:40:52;27.10;16.60
11454;DHT22;5783;55.174;61.310;2024-03-02T10:43:23;27.00;16.60
11454;DHT22;5783;55.174;61.310;2024-03-02T10:45:53;27.00;16.80
11454;DHT22;5783;55.174;61.310;2024-03-02T10:48:25;27.10;16.70
11454;DHT22;5783;55.174;61.310;2024-03-02T10:50:55;27.10;16.70
11454;DHT22;5783;55.174;61.310;2024-03-02T10:53:25;27.10;16.70
11454;DHT22;5783;55.174;61.310;2024-03-02T10:55:57;27.00;16.60
11454;DHT22;5783;55.174;61.310;2024-03-02T10:58:47;27.00;16.60
11454;DHT22;5783;55.174;61.310;2024-03-02T11:01:18;26.90;16.60
11454;DHT22;5783;55.174;61.310;2024-03-02T11:03:47;26.90;16.60
11454;DHT22;5783;55.174;61.310;2024-03-02T11:06:17;26.90;16.80
11454;DHT22;5783;55.174;61.310;2024-03-02T11:08:48;26.90;16.90
11454;DHT22;5783;55.174;61.310;2024-03-02T11:13:52;27.00;16.30
11454;DHT22;5783;55.174;61.310;2024-03-02T11:16:43;27.00;16.70
11454;DHT22;5783;55.174;61.310;2024-03-02T11:19:13;26.90;16.20
11454;DHT22;5783;55.174;61.310;2024-03-02T11:21:44;26.80;16.60
11454;DHT22;5783;55.174;61.310;2024-03-02T11:24:33;26.80;16.60
11454;DHT22;5783;55.174;61.310;2024-03-02T11:27:05;26.80;16.60
11454;DHT22;5783;55.174;61.310;2024-03-02T11:29:42;26.80;16.60
11454;DHT22;5783;55.174;61.310;2024-03-02T11:32:28;26.80;16.50
11454;DHT22;5783;55.174;61.310;2024-03-02T11:34:57;26.80;16.70
11454;DHT22;5783;55.174;61.310;2024-03-02T11:37:27;26.80;16.70
11454;DHT22;5783;55.174;61.310;2024-03-02T11:39:56;26.70;17.40
11454;DHT22;5783;55.174;61.310;2024-03-02T11:42:26;26.70;17.80
11454;DHT22;5783;55.174;61.310;2024-03-02T11:44:57;26.70;19.20
11454;DHT22;5783;55.174;61.310;2024-03-02T11:47:27;26.80;19.20
11454;DHT22;5783;55.174;61.310;2024-03-02T11:49:59;26.80;18.50
11454;DHT22;5783;55.174;61.310;2024-03-02T11:52:28;26.80;18.20
11454;DHT22;5783;55.174;61.310;2024-03-02T11:54:58;26.90;18.10
11454;DHT22;5783;55.174;61.310;2024-03-02T11:57:30;26.90;18.90
11454;DHT22;5783;55.174;61.310;2024-03-02T11:59:59;26.90;17.80
11454;DHT22;5783;55.174;61.310;2024-03-02T12:02:30;26.90;17.70
11454;DHT22;5783;55.174;61.310;2024-03-02T12:05:02;26.90;17.60
11454;DHT22;5783;55.174;61.310;2024-03-02T12:07:31;26.90;17.50
11454;DHT22;5783;55.174;61.310;2024-03-02T12:10:01;26.90;17.50
11454;DHT22;5783;55.174;61.310;2024-03-02T12:12:32;26.90;19.10
11454;DHT22;5783;55.174;61.310;2024-03-02T12:15:01;27.00;18.90
11454;DHT22;5783;55.174;61.310;2024-03-02T12:17:32;27.00;17.40
11454;DHT22;5783;55.174;61.310;2024-03-02T12:20:01;27.00;17.30
11454;DHT22;5783;55.174;61.310;2024-03-02T12:22:31;27.00;17.30
11454;DHT22;5783;55.174;61.310;2024-03-02T12:25:00;27.00;17.30
11454;DHT22;5783;55.174;61.310;2024-03-02T12:27:31;26.80;17.90
11454;DHT22;5783;55.174;61.310;2024-03-02T12:30:00;26.80;17.50
11454;DHT22;5783;55.174;61.310;2024-03-02T12:32:30;26.70;19.80
11454;DHT22;5783;55.174;61.310;2024-03-02T12:34:59;26.80;17.80
11454;DHT22;5783;55.174;61.310;2024-03-02T12:37:30;26.90;19.20
11454;DHT22;5783;55.174;61.310;2024-03-02T12:40:00;26.90;17.50
11454;DHT22;5783;55.174;61.310;2024-03-02T12:42:30;27.00;17.80
11454;DHT22;5783;55.174;61.310;2024-03-02T12:44:59;27.00;18.10
11454;DHT22;5783;55.174;61.310;2024-03-02T12:47:28;27.10;20.40
11454;DHT22;5783;55.174;61.310;2024-03-02T12:49:58;27.10;20.20
11454;DHT22;5783;55.174;61.310;2024-03-02T12:52:27;27.00;19.80
11454;DHT22;5783;55.174;61.310;2024-03-02T12:54:57;27.00;19.40
11454;DHT22;5783;55.174;61.310;2024-03-02T12:57:59;27.00;18.10
11454;DHT22;5783;55.174;61.310;2024-03-02T13:00:18;26.90;18.90
11454;DHT22;5783;55.174;61.310;2024-03-02T13:02:47;26.90;20.00
11454;DHT22;5783;55.174;61.310;2024-03-02T13:05:17;26.90;19.10
11454;DHT22;5783;55.174;61.310;2024-03-02T13:07:48;27.00;18.30
11454;DHT22;5783;55.174;61.310;2024-03-02T13:10:17;27.00;17.50
11454;DHT22;5783;55.174;61.310;2024-03-02T13:12:46;26.90;17.60
11454;DHT22;5783;55.174;61.310;2024-03-02T13:15:16;26.90;19.00
11454;DHT22;5783;55.174;61.310;2024-03-02T13:17:46;27.00;19.60
11454;DHT22;5783;55.174;61.310;2024-03-02T13:20:16;26.90;20.10
11454;DHT22;5783;55.174;61.310;2024-03-02T13:22:46;27.00;19.90
11454;DHT22;5783;55.174;61.310;2024-03-02T13:25:15;27.00;19.60
11454;DHT22;5783;55.174;61.310;2024-03-02T13:27:46;27.00;19.10
11454;DHT22;5783;55.174;61.310;2024-03-02T13:30:15;27.00;19.80
11454;DHT22;5783;55.174;61.310;2024-03-02T13:32:44;27.00;18.80
11454;DHT22;5783;55.174;61.310;2024-03-02T13:35:13;27.00;21.30
11454;DHT22;5783;55.174;61.310;2024-03-02T13:37:43;27.00;19.80
11454;DHT22;5783;55.174;61.310;2024-03-02T13:40:12;27.00;20.60
11454;DHT22;5783;55.174;61.310;2024-03-02T13:42:43;27.00;19.30
11454;DHT22;5783;55.174;61.310;2024-03-02T13:45:13;27.00;21.30
11454;DHT22;5783;55.174;61.310;2024-03-02T13:47:42;26.90;19.20
11454;DHT22;5783;55.174;61.310;2024-03-02T13:50:12;26.90;18.80
11454;DHT22;5783;55.174;61.310;2024-03-02T13:52:41;26.90;19.10
11454;DHT22;5783;55.174;61.310;2024-03-02T13:55:10;26.90;17.20
11454;DHT22;5783;55.174;61.310;2024-03-02T13:57:39;26.90;18.50
11454;DHT22;5783;55.174;61.310;2024-03-02T14:00:09;26.80;17.40
11454;DHT22;5783;55.174;61.310;2024-03-02T14:02:39;26.80;18.10
11454;DHT22;5783;55.174;61.310;2024-03-02T14:05:09;26.80;17.30
11454;DHT22;5783;55.174;61.310;2024-03-02T14:07:39;26.80;17.20
11454;DHT22;5783;55.174;61.310;2024-03-02T14:10:08;26.80;17.40
11454;DHT22;5783;55.174;61.310;2024-03-02T14:12:38;26.80;20.10
11454;DHT22;5783;55.174;61.310;2024-03-02T14:15:08;26.80;18.50
11454;DHT22;5783;55.174;61.310;2024-03-02T14:17:37;26.80;21.20
11454;DHT22;5783;55.174;61.310;2024-03-02T14:20:07;26.90;18.80
11454;DHT22;5783;55.174;61.310;2024-03-02T14:22:38;26.90;20.40
11454;DHT22;5783;55.174;61.310;2024-03-02T14:25:07;27.00;20.70
11454;DHT22;5783;55.174;61.310;2024-03-02T14:27:37;26.90;19.40
11454;DHT22;5783;55.174;61.310;2024-03-02T14:30:07;26.90;21.60
11454;DHT22;5783;55.174;61.310;2024-03-02T14:32:36;26.90;22.90
11454;DHT22;5783;55.174;61.310;2024-03-02T14:35:06;26.90;21.60
11454;DHT22;5783;55.174;61.310;2024-03-02T14:37:37;26.90;21.70
11454;DHT22;5783;55.174;61.310;2024-03-02T14:40:07;26.90;23.10
11454;DHT22;5783;55.174;61.310;2024-03-02T14:42:37;26.90;24.20
11454;DHT22;5783;55.174;61.310;2024-03-02T14:45:06;27.00;24.30
11454;DHT22;5783;55.174;61.310;2024-03-02T14:47:35;26.90;22.10
11454;DHT22;5783;55.174;61.310;2024-03-02T14:50:06;26.90;23.70
11454;DHT22;5783;55.174;61.310;2024-03-02T14:52:36;27.00;23.70
11454;DHT22;5783;55.174;61.310;2024-03-02T14:55:06;26.90;21.30
11454;DHT22;5783;55.174;61.310;2024-03-02T14:57:35;26.80;24.50
11454;DHT22;5783;55.174;61.310;2024-03-02T15:00:05;26.90;24.70
11454;DHT22;5783;55.174;61.310;2024-03-02T15:02:35;26.90;24.50
11454;DHT22;5783;55.174;61.310;2024-03-02T15:05:05;26.90;24.90
11454;DHT22;5783;55.174;61.310;2024-03-02T15:07:34;26.90;25.20
11454;DHT22;5783;55.174;61.310;2024-03-02T15:10:23;26.90;24.80
11454;DHT22;5783;55.174;61.310;2024-03-02T15:12:52;26.90;24.70
11454;DHT22;5783;55.174;61.310;2024-03-02T15:15:21;27.00;25.00
11454;DHT22;5783;55.174;61.310;2024-03-02T15:17:50;27.00;24.70
11454;DHT22;5783;55.174;61.310;2024-03-02T15:20:19;27.00;25.10
11454;DHT22;5783;55.174;61.310;2024-03-02T15:22:49;27.00;24.90
11454;DHT22;5783;55.174;61.310;2024-03-02T15:25:18;27.00;25.00
11454;DHT22;5783;55.174;61.310;2024-03-02T15:27:49;26.90;25.20
11454;DHT22;5783;55.174;61.310;2024-03-02T15:30:18;27.00;25.30
11454;DHT22;5783;55.174;61.310;2024-03-02T15:32:47;27.00;25.20
11454;DHT22;5783;55.174;61.310;2024-03-02T15:35:16;27.00;25.20
11454;DHT22;5783;55.174;61.310;2024-03-02T15:37:45;27.00;25.00
11454;DHT22;5783;55.174;61.310;2024-03-02T15:40:15;27.10;23.70
11454;DHT22;5783;55.174;61.310;2024-03-02T15:42:45;27.10;24.50
11454;DHT22;5783;55.174;61.310;2024-03-02T15:45:14;27.20;24.80
11454;DHT22;5783;55.174;61.310;2024-03-02T15:47:43;27.20;24.70
11454;DHT22;5783;55.174;61.310;2024-03-02T15:50:12;27.20;25.00
11454;DHT22;5783;55.174;61.310;2024-03-02T15:52:42;27.20;24.70
11454;DHT22;5783;55.174;61.310;2024-03-02T15:55:12;27.20;24.20
11454;DHT22;5783;55.174;61.310;2024-03-02T15:57:42;27.30;24.20
11454;DHT22;5783;55.174;61.310;2024-03-02T16:00:11;27.30;24.20
11454;DHT22;5783;55.174;61.310;2024-03-02T16:02:41;27.30;24.50
11454;DHT22;5783;55.174;61.310;2024-03-02T16:05:10;27.30;24.50
11454;DHT22;5783;55.174;61.310;2024-03-02T16:07:39;27.40;22.90
11454;DHT22;5783;55.174;61.310;2024-03-02T16:10:09;27.40;22.00